Time;durP1;ratioP1;P1;durP2;ratioP2;P2;SDS_P1;SDS_P2;PMS_P1;PMS_P2;Temp;Humidity;BMP_temperature;BMP_pressure;BME280_temperature;BME280_humidity;BME280_pressure;Samples;Min_cycle;Max_cycle;Signal;HPM_P1;HPM_P2
2022/08/17 00:00:33;;;;;;;42.60;6.20;;;;;;;19.25;100.00;98345.75;2201000;80;21009;-70
2022/08/17 00:03:37;;;;;;;21.42;6.50;;;;;;;19.38;100.00;98344.78;2183368;80;21010;-70
2022/08/17 00:06:38;;;;;;;;;;;;;;;19.33;100.00;98342.27;2217070;79;21028;-69
2022/08/17 00:09:40;;;;;;;19.30;7.70;;;;;;;19.35;100.00;98338.95;2246340;79;20106;-69
2022/08/17 00:12:41;;;;;;;18.55;6.47;;;;;;;19.28;100.00;98333.94;2210134;78;21002;-70
2022/08/17 00:15:43;;;;;;;16.10;5.53;;;;;;;19.22;100.00;98334.08;2246660;78;21083;-70
2022/08/17 00:18:45;;;;;;;15.65;5.62;;;;;;;19.20;100.00;98333.42;2242896;78;21099;-69
2022/08/17 00:21:47;;;;;;;22.30;9.25;;;;;;;19.31;100.00;98329.63;2242072;79;21577;-70
2022/08/17 00:24:49;;;;;;;24.75;8.60;;;;;;;19.38;100.00;98333.33;2252713;78;21028;-71
2022/08/17 00:27:51;;;;;;;19.73;6.50;;;;;;;19.42;100.00;98330.66;2213672;80;21503;-71
2022/08/17 00:30:52;;;;;;;18.20;6.72;;;;;;;19.35;100.00;98329.16;2204834;80;21028;-70
2022/08/17 00:33:54;;;;;;;11.95;4.03;;;;;;;19.32;100.00;98334.81;2206561;80;21588;-69
2022/08/17 00:36:55;;;;;;;29.87;6.42;;;;;;;19.15;100.00;98339.70;2241944;79;20988;-70
2022/08/17 00:39:56;;;;;;;16.02;5.55;;;;;;;19.17;100.00;98337.23;2243810;79;21004;-70
2022/08/17 00:42:58;;;;;;;21.42;6.80;;;;;;;19.11;100.00;98330.41;2213741;80;20999;-70
2022/08/17 00:45:59;;;;;;;33.15;5.92;;;;;;;19.11;100.00;98333.07;2202499;80;20981;-69
2022/08/17 00:49:01;;;;;;;39.35;5.55;;;;;;;18.91;100.00;98331.98;2247738;78;21547;-70
2022/08/17 00:52:05;;;;;;;12.07;4.35;;;;;;;18.76;100.00;98334.84;2211536;80;21024;-70
2022/08/17 00:55:05;;;;;;;18.27;6.03;;;;;;;18.94;100.00;98333.49;2174993;80;21033;-70
2022/08/17 00:58:07;;;;;;;19.82;7.00;;;;;;;18.84;100.00;98333.58;2208843;80;21701;-70
2022/08/17 01:01:08;;;;;;;17.05;6.65;;;;;;;18.72;100.00;98337.00;2205994;80;20999;-70
2022/08/17 01:04:10;;;;;;;27.87;4.05;;;;;;;18.92;100.00;98339.45;2203813;80;21032;-71
2022/08/17 01:07:11;;;;;;;44.83;5.20;;;;;;;18.78;100.00;98340.34;2209917;80;21004;-71
2022/08/17 01:10:13;;;;;;;24.72;5.05;;;;;;;18.62;100.00;98337.11;2204596;80;21036;-70
2022/08/17 01:13:15;;;;;;;22.17;6.12;;;;;;;18.65;100.00;98332.80;2206346;80;21032;-70
2022/08/17 01:16:16;;;;;;;13.00;3.50;;;;;;;18.52;100.00;98331.90;2204475;80;21036;-70
2022/08/17 01:19:19;;;;;;;13.20;3.27;;;;;;;18.53;100.00;98334.05;2203644;80;21562;-70
2022/08/17 01:22:20;;;;;;;26.45;4.78;;;;;;;18.54;100.00;98334.39;2207624;80;21047;-67
2022/08/17 01:25:22;;;;;;;43.87;5.67;;;;;;;18.53;100.00;98341.54;2201515;80;20993;-70
2022/08/17 01:28:24;;;;;;;24.90;4.60;;;;;;;17.97;100.00;98350.24;2204742;80;21006;-70
2022/08/17 01:31:25;;;;;;;39.15;4.72;;;;;;;17.97;100.00;98350.24;2206460;80;21511;-70
2022/08/17 01:34:27;;;;;;;36.60;5.45;;;;;;;17.96;100.00;98363.66;2195036;80;21075;-70
2022/08/17 01:37:28;;;;;;;18.17;6.40;;;;;;;18.05;100.00;98354.77;2199310;80;21600;-69
2022/08/17 01:40:30;;;;;;;19.20;7.58;;;;;;;18.08;100.00;98350.48;2210515;80;21004;-70
2022/08/17 01:43:31;;;;;;;22.35;9.05;;;;;;;18.17;100.00;98350.91;2207779;80;21541;-70
2022/08/17 01:46:33;;;;;;;26.82;9.28;;;;;;;18.24;100.00;98351.10;2206377;80;21067;-70
2022/08/17 01:49:34;;;;;;;21.30;7.37;;;;;;;18.29;100.00;98360.78;2205470;80;21040;-70
2022/08/17 01:52:36;;;;;;;21.52;8.10;;;;;;;18.48;100.00;98357.09;2204988;80;21523;-70
2022/08/17 01:55:37;;;;;;;23.20;7.35;;;;;;;18.54;100.00;98355.64;2205080;80;20969;-71
2022/08/17 01:58:39;;;;;;;;;;;;;;;18.45;100.00;98351.28;2208844;80;21032;-70
2022/08/17 02:01:41;;;;;;;22.65;8.73;;;;;;;18.35;100.00;98354.84;2203591;80;20124;-70
2022/08/17 02:04:42;;;;;;;22.00;8.48;;;;;;;18.29;100.00;98359.95;2208258;80;20996;-67
2022/08/17 02:07:44;;;;;;;25.88;12.30;;;;;;;18.24;100.00;98359.06;2207295;80;21051;-69
2022/08/17 02:10:45;;;;;;;30.80;13.28;;;;;;;18.13;100.00;98353.52;2214046;80;21491;-70
2022/08/17 02:13:47;;;;;;;26.73;12.23;;;;;;;18.22;100.00;98360.23;2253552;78;21015;-70
2022/08/17 02:16:48;;;;;;;28.45;12.58;;;;;;;18.25;100.00;98355.44;2211231;79;21598;-70
2022/08/17 02:19:50;;;;;;;20.00;7.20;;;;;;;18.12;100.00;98362.97;2249982;78;20961;-69
2022/08/17 02:22:51;;;;;;;26.62;7.60;;;;;;;18.05;100.00;98359.26;2207392;80;21514;-70
2022/08/17 02:25:53;;;;;;;12.88;4.28;;;;;;;18.01;100.00;98357.39;2213778;80;21008;-70
2022/08/17 02:28:54;;;;;;;38.90;6.28;;;;;;;17.86;100.00;98355.73;2203087;80;21011;-66
2022/08/17 02:31:57;;;;;;;78.52;6.62;;;;;;;17.66;100.00;98355.05;2199326;80;21001;-70
2022/08/17 02:34:59;;;;;;;67.87;7.20;;;;;;;17.64;100.00;98352.55;2233815;79;21508;-70
2022/08/17 02:38:00;;;;;;;74.37;6.80;;;;;;;17.68;100.00;98354.90;2209239;80;21023;-70
2022/08/17 02:41:02;;;;;;;55.92;6.45;;;;;;;17.58;100.00;98351.80;2227749;79;21291;-70
2022/08/17 02:44:04;;;;;;;31.70;6.10;;;;;;;17.55;100.00;98353.94;2214274;79;20976;-70
2022/08/17 02:47:06;;;;;;;29.82;6.45;;;;;;;17.46;100.00;98353.84;2217453;79;21495;-70
2022/08/17 02:50:08;;;;;;;21.60;8.33;;;;;;;17.56;100.00;98352.95;2215957;80;21035;-71
2022/08/17 02:53:09;;;;;;;21.50;9.33;;;;;;;17.71;100.00;98351.94;2215549;80;20969;-68
2022/08/17 02:56:10;;;;;;;28.10;9.47;;;;;;;17.89;100.00;98350.63;2248838;78;21346;-70
2022/08/17 02:59:12;;;;;;;16.23;5.53;;;;;;;17.81;100.00;98351.38;2213077;80;21646;-69
2022/08/17 03:02:14;;;;;;;22.03;8.37;;;;;;;17.74;100.00;98354.28;2212779;80;21027;-70
2022/08/17 03:05:15;;;;;;;25.10;9.63;;;;;;;17.70;100.00;98353.77;2243422;79;21263;-70
2022/08/17 03:08:17;;;;;;;23.83;9.45;;;;;;;17.75;100.00;98356.78;2215001;79;21072;-69
2022/08/17 03:11:18;;;;;;;25.20;10.13;;;;;;;17.67;100.00;98364.69;2207645;80;21039;-70
2022/08/17 03:14:20;;;;;;;25.05;10.72;;;;;;;17.64;100.00;98357.00;2240408;78;21539;-69
2022/08/17 03:17:21;;;;;;;26.52;10.70;;;;;;;17.66;100.00;98364.33;2232755;78;20961;-70
2022/08/17 03:20:23;;;;;;;25.55;10.23;;;;;;;17.74;100.00;98355.14;2251566;78;21111;-70
2022/08/17 03:23:25;;;;;;;25.90;10.78;;;;;;;17.88;100.00;98353.76;2234240;79;21107;-70
2022/08/17 03:26:26;;;;;;;30.00;12.07;;;;;;;17.83;100.00;98355.55;2204617;80;21023;-67
2022/08/17 03:29:28;;;;;;;26.23;11.25;;;;;;;17.88;100.00;98358.23;2220371;80;20999;-71
2022/08/17 03:32:29;;;;;;;26.50;11.53;;;;;;;17.76;100.00;98356.31;2251795;78;20980;-59
2022/08/17 03:35:31;;;;;;;27.40;10.65;;;;;;;17.82;100.00;98357.03;2255771;78;21479;-60
2022/08/17 03:38:33;;;;;;;23.52;8.25;;;;;;;17.88;100.00;98359.06;2254141;78;21519;-67
2022/08/17 03:41:34;;;;;;;22.95;10.38;;;;;;;17.94;100.00;98355.00;2256186;78;20989;-60
2022/08/17 03:44:36;;;;;;;28.23;11.08;;;;;;;17.78;100.00;98360.45;2255837;78;21048;-59
2022/08/17 03:56:48;;;;;;;28.73;13.08;;;;;;;17.87;100.00;98359.22;2238874;78;21519;-62
2022/08/17 03:59:51;;;;;;;28.95;11.08;;;;;;;17.99;100.00;98369.48;2237539;78;20997;-68
2022/08/17 04:02:53;;;;;;;23.73;10.40;;;;;;;18.06;100.00;98378.16;2257454;78;21008;-65
2022/08/17 04:05:56;;;;;;;24.75;10.00;;;;;;;18.02;100.00;98378.14;2238243;78;21551;-63
2022/08/17 04:08:58;;;;;;;25.23;11.22;;;;;;;17.79;100.00;98370.09;2258486;78;21024;-59
2022/08/17 04:12:00;;;;;;;25.88;11.38;;;;;;;17.81;100.00;98392.48;2257120;78;21036;-60
2022/08/17 04:15:01;;;;;;;25.00;11.73;;;;;;;17.82;100.00;98390.19;2259633;78;21476;-60
2022/08/17 04:18:03;;;;;;;25.37;11.50;;;;;;;17.99;100.00;98391.21;2240418;78;21007;-62
2022/08/17 04:21:05;;;;;;;32.95;13.22;;;;;;;18.05;100.00;98387.94;2240721;77;21055;-60
2022/08/17 04:24:06;;;;;;;27.32;11.68;;;;;;;18.11;100.00;98395.79;2230180;77;21037;-59
2022/08/17 04:27:08;;;;;;;25.85;11.43;;;;;;;18.26;100.00;98400.05;2256607;78;21479;-59
2022/08/17 04:30:10;;;;;;;27.70;12.28;;;;;;;18.33;100.00;98402.44;2243120;78;20982;-60
2022/08/17 04:33:12;;;;;;;25.00;11.60;;;;;;;18.43;100.00;98405.86;2226199;79;21027;-65
2022/08/17 04:36:14;;;;;;;28.10;10.95;;;;;;;18.64;100.00;98409.48;2240817;78;21054;-62
2022/08/17 04:39:15;;;;;;;29.95;12.88;;;;;;;18.91;100.00;98398.91;2227836;79;21000;-61
2022/08/17 04:42:17;;;;;;;27.73;12.37;;;;;;;19.06;100.00;98398.64;2229116;78;21076;-59
2022/08/17 04:45:19;;;;;;;29.00;12.37;;;;;;;19.32;100.00;98403.08;2224368;79;21033;-60
2022/08/17 04:48:21;;;;;;;35.05;13.50;;;;;;;19.33;100.00;98410.89;2216165;79;21005;-63
2022/08/17 04:51:22;;;;;;;28.10;13.45;;;;;;;19.35;100.00;98403.61;2227245;79;21045;-68
2022/08/17 04:54:24;;;;;;;33.35;15.35;;;;;;;19.46;100.00;98402.47;2240057;78;21526;-69
2022/08/17 04:57:25;;;;;;;31.65;16.65;;;;;;;19.58;100.00;98400.85;2280332;78;21186;-69
2022/08/17 05:00:26;;;;;;;37.65;18.80;;;;;;;19.64;100.00;98406.37;2282134;77;21153;-69
2022/08/17 05:03:28;;;;;;;37.38;18.60;;;;;;;19.69;100.00;98405.37;2283325;77;21090;-70
2022/08/17 05:06:30;;;;;;;38.98;20.12;;;;;;;19.82;100.00;98407.59;2284194;77;21058;-68
2022/08/17 05:09:31;;;;;;;33.20;17.25;;;;;;;20.09;100.00;98413.64;2283342;77;20980;-69
2022/08/17 05:12:33;;;;;;;30.88;17.60;;;;;;;20.46;100.00;98409.67;2281537;77;20973;-69
2022/08/17 05:15:34;;;;;;;35.60;19.05;;;;;;;20.84;100.00;98418.48;2282655;77;21546;-69
2022/08/17 05:18:37;;;;;;;33.98;18.65;;;;;;;21.09;100.00;98416.09;2283997;77;20985;-70
2022/08/17 05:21:39;;;;;;;34.18;18.37;;;;;;;21.33;100.00;98426.34;2284512;77;21091;-68
2022/08/17 05:24:41;;;;;;;36.68;18.82;;;;;;;21.46;100.00;98424.45;2286915;77;21541;-70
2022/08/17 05:27:43;;;;;;;35.78;19.75;;;;;;;21.67;100.00;98422.56;2284359;77;21043;-70
2022/08/17 05:30:44;;;;;;;35.38;18.90;;;;;;;21.94;100.00;98428.44;2284009;77;21509;-69
2022/08/17 05:33:46;;;;;;;36.28;20.88;;;;;;;22.02;100.00;98432.36;2280403;77;20996;-69
2022/08/17 05:36:47;;;;;;;32.88;19.32;;;;;;;22.39;100.00;98427.31;2284682;77;20957;-70
2022/08/17 05:39:49;;;;;;;34.03;19.45;;;;;;;22.65;100.00;98427.73;2284162;77;20977;-69
2022/08/17 05:42:50;;;;;;;33.95;19.80;;;;;;;22.81;100.00;98433.47;2282716;77;20985;-70
2022/08/17 05:45:52;;;;;;;36.53;20.02;;;;;;;22.94;100.00;98433.33;2286674;77;20973;-69
2022/08/17 05:48:54;;;;;;;34.98;20.25;;;;;;;22.96;100.00;98434.81;2282121;77;20990;-69
2022/08/17 05:51:57;;;;;;;33.80;19.05;;;;;;;22.94;100.00;98426.64;2282976;77;21578;-70
2022/08/17 05:54:58;;;;;;;36.50;20.30;;;;;;;23.09;100.00;98429.34;2286578;77;21049;-69
2022/08/17 05:58:00;;;;;;;33.92;17.90;;;;;;;23.23;100.00;98427.21;2287407;77;21009;-70
2022/08/17 06:01:02;;;;;;;34.35;18.07;;;;;;;23.39;100.00;98428.86;2287391;77;21016;-69
2022/08/17 06:04:03;;;;;;;31.15;18.12;;;;;;;23.56;100.00;98425.97;2287668;77;20980;-69
2022/08/17 06:07:05;;;;;;;31.85;17.70;;;;;;;23.95;100.00;98423.46;2283473;77;20989;-68
2022/08/17 06:10:06;;;;;;;32.03;17.73;;;;;;;24.19;100.00;98422.27;2239395;79;20993;-75
2022/08/17 06:15:54;;;;;;;32.10;16.87;;;;;;;24.75;100.00;98423.41;2238500;79;23445;-60
2022/08/17 06:18:54;;;;;;;29.52;15.90;;;;;;;24.70;100.00;98426.16;2184788;80;20993;-60
2022/08/17 06:21:55;;;;;;;36.53;16.90;;;;;;;24.93;100.00;98420.25;2188395;81;20960;-58
2022/08/17 06:24:55;;;;;;;28.13;14.93;;;;;;;25.10;100.00;98424.77;2190458;81;21023;-61
2022/08/17 06:27:56;;;;;;;29.20;14.67;;;;;;;25.42;100.00;98432.73;2196363;80;21487;-59
2022/08/17 06:30:56;;;;;;;27.47;15.20;;;;;;;25.52;100.00;98437.22;2212862;80;21002;-59
2022/08/17 06:33:57;;;;;;;26.33;13.00;;;;;;;25.57;100.00;98425.88;2193195;81;21046;-61
2022/08/17 06:36:58;;;;;;;30.07;13.67;;;;;;;25.60;100.00;98433.52;2193035;81;20963;-60
2022/08/17 06:39:58;;;;;;;25.87;13.63;;;;;;;25.61;100.00;98434.37;2192736;81;20963;-59
2022/08/17 06:42:59;;;;;;;28.03;13.63;;;;;;;25.71;100.00;98434.30;2193074;81;21831;-58
2022/08/17 06:46:00;;;;;;;29.87;13.20;;;;;;;25.91;100.00;98434.36;2193241;81;21019;-58
2022/08/17 06:49:01;;;;;;;25.85;12.25;;;;;;;26.09;100.00;98431.67;2192736;81;21055;-58
2022/08/17 06:52:01;;;;;;;25.73;12.50;;;;;;;26.34;100.00;98440.50;2192925;81;21477;-58
2022/08/17 06:55:02;;;;;;;27.30;11.87;;;;;;;26.28;100.00;98433.55;2193366;81;21019;-57
2022/08/17 06:58:02;;;;;;;27.50;11.73;;;;;;;26.24;100.00;98432.83;2192694;81;20982;-57
2022/08/17 07:01:03;;;;;;;23.30;11.48;;;;;;;26.56;100.00;98432.53;2184297;81;20974;-61
2022/08/17 07:04:04;;;;;;;27.83;12.40;;;;;;;26.58;100.00;98431.82;2176062;82;21019;-57
2022/08/17 07:08:00;;;;;;;25.45;11.93;;;;;;;26.72;100.00;98434.03;2185298;81;21452;-58
2022/08/17 07:10:07;;;;;;;26.37;11.45;;;;;;;26.60;100.00;98436.46;2157228;81;21021;-59
2022/08/17 07:13:08;;;;;;;27.70;12.37;;;;;;;26.64;100.00;98436.89;2186532;81;21083;-57
2022/08/17 07:16:08;;;;;;;23.33;12.17;;;;;;;26.74;100.00;98436.52;2171082;82;21033;-58
2022/08/17 07:19:09;;;;;;;29.40;12.13;;;;;;;26.81;100.00;98431.95;2170674;82;21008;-58
2022/08/17 07:22:09;;;;;;;24.33;11.93;;;;;;;27.01;100.00;98437.81;2171243;82;21094;-60
2022/08/17 07:25:10;;;;;;;22.43;11.43;;;;;;;27.08;100.00;98440.82;2170746;82;20998;-57
2022/08/17 07:28:11;;;;;;;24.83;11.93;;;;;;;27.16;100.00;98438.41;2170220;82;21057;-57
2022/08/17 07:31:13;;;;;;;23.70;11.95;;;;;;;27.20;100.00;98434.80;2170209;82;21045;-57
2022/08/17 07:34:13;;;;;;;25.95;12.25;;;;;;;27.39;100.00;98438.50;2170337;82;21070;-59
2022/08/17 07:37:14;;;;;;;23.57;11.50;;;;;;;27.63;100.00;98440.48;2170187;82;21026;-58
2022/08/17 07:40:14;;;;;;;24.47;12.83;;;;;;;27.71;100.00;98442.09;2170063;82;21061;-58
2022/08/17 07:43:15;;;;;;;24.70;12.03;;;;;;;27.75;100.00;98439.27;2170372;82;21080;-60
2022/08/17 07:49:18;;;;;;;27.58;12.68;;;;;;;27.75;100.00;98433.08;2148970;82;21558;-58
2022/08/17 07:52:19;;;;;;;26.47;12.00;;;;;;;27.85;100.00;98436.13;2170406;82;20994;-58
2022/08/17 07:55:20;;;;;;;25.45;11.53;;;;;;;28.11;100.00;98444.61;2170218;82;21044;-58
2022/08/17 07:58:20;;;;;;;24.80;12.13;;;;;;;28.28;100.00;98438.19;2170193;82;21001;-58
2022/08/17 08:01:21;;;;;;;24.57;11.63;;;;;;;28.31;100.00;98440.97;2170052;82;21683;-57
2022/08/17 08:04:22;;;;;;;23.93;10.90;;;;;;;28.42;100.00;98439.46;2170656;82;21021;-58
2022/08/17 08:07:23;;;;;;;23.95;11.55;;;;;;;28.49;100.00;98433.49;2169646;82;21137;-57
2022/08/17 08:10:23;;;;;;;26.82;11.75;;;;;;;28.55;100.00;98433.95;2170036;82;20990;-57
2022/08/17 08:13:24;;;;;;;26.13;12.27;;;;;;;28.43;100.00;98435.70;2172021;81;20957;-58
2022/08/17 08:16:24;;;;;;;25.20;12.50;;;;;;;28.49;100.00;98437.00;2188971;81;21502;-58
2022/08/17 08:19:25;;;;;;;26.37;11.45;;;;;;;28.43;100.00;98433.00;2188423;81;20949;-58
2022/08/17 08:22:28;;;;;;;27.53;10.80;;;;;;;28.48;100.00;98438.58;2188694;81;21007;-58
2022/08/17 08:25:28;;;;;;;26.93;11.73;;;;;;;28.39;100.00;98432.63;2172245;81;21518;-58
2022/08/17 08:28:28;;;;;;;24.37;10.90;;;;;;;28.51;100.00;98440.83;2188942;81;21008;-57
2022/08/17 08:31:29;;;;;;;29.60;10.77;;;;;;;28.70;100.00;98441.73;2188907;81;21016;-57
2022/08/17 08:34:29;;;;;;;21.43;10.10;;;;;;;28.93;100.00;98441.65;2189074;81;21139;-58
2022/08/17 08:37:30;;;;;;;26.20;10.87;;;;;;;29.21;96.43;98437.13;2188748;81;21031;-57
2022/08/17 08:40:30;;;;;;;30.40;10.93;;;;;;;29.39;95.72;98437.66;2188675;81;21576;-58
2022/08/17 08:43:31;;;;;;;24.43;10.33;;;;;;;29.54;92.05;98435.95;2188755;81;20977;-60
2022/08/17 08:46:33;;;;;;;25.37;10.57;;;;;;;29.64;95.07;98429.48;2188867;81;20982;-59
2022/08/17 08:49:33;;;;;;;25.82;10.65;;;;;;;29.70;92.17;98435.86;2188409;81;21019;-57
2022/08/17 08:52:34;;;;;;;25.00;10.30;;;;;;;29.73;94.73;98434.05;2188633;81;21481;-57
2022/08/17 08:55:36;;;;;;;23.20;10.10;;;;;;;29.77;87.35;98442.51;2189127;81;21569;-58
2022/08/17 08:58:37;;;;;;;24.30;10.28;;;;;;;29.26;87.75;98440.52;2188109;81;21026;-60
2022/08/17 09:01:37;;;;;;;25.07;10.23;;;;;;;29.24;92.19;98440.75;2188530;81;20990;-60
2022/08/17 09:04:37;;;;;;;23.60;10.03;;;;;;;29.01;90.85;98435.44;2188741;81;21023;-60
2022/08/17 09:07:38;;;;;;;23.67;9.20;;;;;;;29.17;88.77;98437.27;2188175;81;21031;-60
2022/08/17 09:10:39;;;;;;;20.23;8.17;;;;;;;29.68;86.28;98432.03;2188912;81;21496;-61
2022/08/17 09:13:40;;;;;;;25.35;8.85;;;;;;;29.73;81.27;98445.67;2188076;81;21022;-61
2022/08/17 09:16:40;;;;;;;25.33;8.47;;;;;;;29.25;82.96;98442.91;2159092;82;20968;-58
2022/08/17 09:19:40;;;;;;;22.60;8.60;;;;;;;29.28;83.01;98439.76;2158605;82;21015;-61
2022/08/17 09:22:41;;;;;;;22.50;8.43;;;;;;;29.43;80.62;98438.87;2158576;82;20976;-57
2022/08/17 09:25:43;;;;;;;22.25;7.17;;;;;;;29.64;77.52;98436.74;2158613;82;21519;-59
2022/08/17 09:28:43;;;;;;;21.40;7.87;;;;;;;29.76;76.71;98440.34;2158445;82;21008;-58
2022/08/17 09:31:45;;;;;;;23.97;7.87;;;;;;;29.82;77.06;98433.20;2158472;82;21046;-58
2022/08/17 09:34:46;;;;;;;22.32;8.00;;;;;;;30.00;72.07;98441.84;2137646;82;21498;-58
2022/08/17 09:37:46;;;;;;;21.63;8.47;;;;;;;30.26;74.79;98446.55;2158645;82;20952;-58
2022/08/17 09:40:47;;;;;;;21.23;8.00;;;;;;;30.43;73.71;98439.98;2159000;82;21036;-58
2022/08/17 09:43:47;;;;;;;21.73;7.70;;;;;;;30.61;71.28;98443.95;2158747;81;21025;-58
2022/08/17 09:46:47;;;;;;;21.10;7.10;;;;;;;30.73;68.20;98452.92;2158763;81;20980;-59
2022/08/17 09:49:48;;;;;;;20.43;7.50;;;;;;;30.65;69.48;98445.14;2158453;82;21139;-58
2022/08/17 09:52:49;;;;;;;20.05;7.67;;;;;;;30.43;70.21;98450.30;2158284;82;21502;-59
2022/08/17 09:55:51;;;;;;;22.17;7.87;;;;;;;30.44;65.84;98447.05;2128813;82;21051;-58
2022/08/17 09:58:53;;;;;;;23.00;8.20;;;;;;;30.54;69.26;98450.00;2089502;85;20999;-58
2022/08/17 10:01:53;;;;;;;22.32;8.03;;;;;;;30.91;69.28;98447.11;2102933;84;21493;-58
2022/08/17 10:04:53;;;;;;;22.77;8.33;;;;;;;30.82;65.60;98450.70;2157930;82;20984;-58
2022/08/17 10:07:54;;;;;;;21.50;8.23;;;;;;;30.98;63.41;98454.58;2158427;82;21059;-59
2022/08/17 10:10:57;;;;;;;21.50;8.38;;;;;;;30.64;64.01;98441.32;2158688;82;21028;-58
2022/08/17 10:13:57;;;;;;;20.05;8.48;;;;;;;30.75;66.30;98447.28;2137759;81;20992;-59
2022/08/17 10:16:58;;;;;;;24.37;8.77;;;;;;;31.01;70.45;98444.66;2158852;82;21364;-59
2022/08/17 10:19:58;;;;;;;23.10;8.20;;;;;;;30.93;66.02;98445.81;2158499;81;21196;-59
2022/08/17 10:29:03;;;;;;;23.22;7.95;;;;;;;31.58;64.54;98441.86;2157986;82;21067;-60
2022/08/17 10:32:04;;;;;;;21.23;8.20;;;;;;;31.64;62.99;98446.86;2158473;82;21495;-59
2022/08/17 10:35:05;;;;;;;22.40;7.90;;;;;;;31.61;62.07;98440.02;2158223;82;21550;-60
2022/08/17 10:38:05;;;;;;;;;;;;;;;31.41;64.11;98439.03;2160319;82;21280;-58
2022/08/17 10:41:06;;;;;;;21.37;8.00;;;;;;;31.78;63.87;98440.90;2158132;82;20100;-59
2022/08/17 10:44:06;;;;;;;22.22;8.35;;;;;;;31.81;62.54;98440.11;2158123;82;21015;-59
2022/08/17 10:47:07;;;;;;;20.03;7.97;;;;;;;32.21;62.93;98433.33;2158053;82;21023;-58
2022/08/17 10:50:07;;;;;;;22.17;8.20;;;;;;;32.68;62.50;98443.06;2157161;82;21451;-58
2022/08/17 10:53:08;;;;;;;23.35;8.93;;;;;;;32.68;62.50;98443.06;2156595;82;21285;-59
2022/08/17 10:56:08;;;;;;;21.85;8.68;;;;;;;32.38;60.86;98446.07;2157179;82;21000;-58
2022/08/17 10:59:09;;;;;;;21.15;8.53;;;;;;;32.36;58.85;98447.67;2157223;82;21071;-59
2022/08/17 11:02:11;;;;;;;22.45;8.45;;;;;;;32.42;60.20;98443.97;2156434;82;21019;-58
2022/08/17 11:05:12;;;;;;;22.90;8.50;;;;;;;32.26;56.97;98454.28;2156561;82;21069;-59
2022/08/17 11:08:12;;;;;;;25.52;8.95;;;;;;;31.84;59.12;98452.67;2157159;82;21487;-61
2022/08/17 11:11:13;;;;;;;19.23;8.30;;;;;;;31.65;59.72;98444.41;2158123;82;21581;-60
2022/08/17 11:14:15;;;;;;;21.97;8.90;;;;;;;31.71;60.32;98446.18;2159632;81;21008;-59
2022/08/17 11:17:16;;;;;;;22.48;8.85;;;;;;;31.79;59.98;98448.49;2161326;81;21513;-61
2022/08/17 11:20:16;;;;;;;21.20;8.67;;;;;;;31.93;60.02;98447.69;2189214;81;21030;-60
2022/08/17 11:23:17;;;;;;;20.07;8.43;;;;;;;31.84;56.71;98447.25;2189058;81;21661;-59
2022/08/17 11:26:17;;;;;;;21.95;8.38;;;;;;;32.11;55.68;98439.35;2188590;81;21039;-60
2022/08/17 11:29:18;;;;;;;21.30;8.53;;;;;;;32.11;55.68;98439.35;2189118;81;20994;-59
2022/08/17 11:32:18;;;;;;;18.90;7.70;;;;;;;32.03;57.12;98443.80;2188602;81;21046;-59
2022/08/17 11:35:19;;;;;;;22.30;8.37;;;;;;;32.23;57.73;98426.30;2186644;81;21531;-62
2022/08/17 11:38:19;;;;;;;21.20;8.90;;;;;;;32.39;59.27;98430.91;2186102;81;21447;-61
2022/08/17 11:41:21;;;;;;;21.57;8.05;;;;;;;32.64;59.41;98425.59;2186441;81;21064;-59
2022/08/17 11:44:21;;;;;;;20.80;8.38;;;;;;;32.94;57.34;98417.15;2186718;81;21041;-59
2022/08/17 11:53:28;;;;;;;20.88;7.95;;;;;;;32.53;54.52;98425.17;2159387;81;20974;-58
2022/08/17 11:56:29;;;;;;;21.37;7.65;;;;;;;32.37;55.06;98420.84;2186987;81;21533;-59
2022/08/17 11:59:31;;;;;;;20.05;7.85;;;;;;;32.55;52.04;98424.38;2186321;81;21104;-62
2022/08/17 12:02:33;;;;;;;20.20;7.37;;;;;;;32.56;53.08;98420.61;2159754;81;21519;-59
2022/08/17 12:05:34;;;;;;;21.68;7.65;;;;;;;32.60;52.06;98423.12;2186642;81;21010;-59
2022/08/17 12:08:34;;;;;;;19.87;8.23;;;;;;;32.62;51.86;98417.70;2143446;83;21019;-59
2022/08/17 12:11:35;;;;;;;21.07;8.18;;;;;;;32.46;53.76;98418.00;2144153;83;20956;-60
2022/08/17 12:14:35;;;;;;;19.92;8.23;;;;;;;32.74;55.31;98420.90;2142646;83;20988;-59
2022/08/17 12:17:36;;;;;;;20.63;8.10;;;;;;;32.72;52.95;98429.30;2127539;84;21025;-59
2022/08/17 12:20:37;;;;;;;22.07;8.30;;;;;;;32.28;53.07;98426.37;2172210;81;21204;-58
2022/08/17 12:23:39;;;;;;;23.95;8.20;;;;;;;31.83;52.89;98421.73;2172091;82;21447;-60
2022/08/17 12:26:42;;;;;;;23.30;8.05;;;;;;;31.56;55.11;98424.42;2172099;82;21044;-58
2022/08/17 12:29:42;;;;;;;19.48;7.58;;;;;;;31.79;54.48;98420.02;2161279;82;21536;-59
2022/08/17 12:32:46;;;;;;;19.52;8.00;;;;;;;31.76;56.14;98419.16;2127724;84;21014;-60
2022/08/17 12:35:45;;;;;;;22.25;8.20;;;;;;;31.50;54.94;98416.45;2106492;84;21512;-58
2022/08/17 12:38:45;;;;;;;22.20;8.98;;;;;;;31.06;56.16;98411.45;2171875;81;20973;-58
2022/08/17 12:41:46;;;;;;;21.73;8.70;;;;;;;30.93;56.58;98416.03;2172302;82;20969;-59
2022/08/17 12:44:46;;;;;;;26.13;8.37;;;;;;;30.64;57.17;98423.73;2172246;82;20969;-59
2022/08/17 12:47:47;;;;;;;22.97;8.90;;;;;;;31.22;57.76;98415.31;2172479;81;21028;-58
2022/08/17 12:50:47;;;;;;;20.57;8.10;;;;;;;31.76;56.42;98415.09;2172271;81;21519;-58
2022/08/17 12:53:48;;;;;;;18.17;8.37;;;;;;;32.13;55.02;98414.18;2172126;81;21016;-59
2022/08/17 12:56:48;;;;;;;20.13;7.60;;;;;;;32.43;53.14;98414.42;2172440;81;21463;-58
2022/08/17 12:59:49;;;;;;;22.15;8.63;;;;;;;32.55;55.37;98414.33;2127006;83;21845;-59
2022/08/17 13:02:49;;;;;;;21.75;8.33;;;;;;;32.87;53.69;98416.50;2127857;84;21024;-58
2022/08/17 13:05:49;;;;;;;24.23;8.28;;;;;;;33.12;53.23;98420.10;2127685;83;20992;-58
2022/08/17 13:08:50;;;;;;;23.27;8.38;;;;;;;33.40;54.03;98404.72;2126262;84;20966;-59
2022/08/17 13:11:50;;;;;;;21.97;9.10;;;;;;;33.53;52.61;98414.94;2169669;82;20951;-58
2022/08/17 13:14:51;;;;;;;22.48;8.18;;;;;;;33.74;52.93;98427.69;2170718;82;20971;-60
2022/08/17 13:17:52;;;;;;;20.90;8.38;;;;;;;33.33;49.02;98429.91;2179987;81;21496;-58
2022/08/17 13:20:52;;;;;;;22.90;9.08;;;;;;;32.68;51.50;98417.83;2179802;82;21604;-58
2022/08/17 13:23:54;;;;;;;20.55;8.15;;;;;;;32.85;52.03;98415.91;2180288;82;20990;-58
2022/08/17 13:26:55;;;;;;;20.08;7.83;;;;;;;33.10;51.42;98417.34;2180075;82;21018;-59
2022/08/17 13:29:58;;;;;;;23.05;8.28;;;;;;;32.87;52.07;98427.36;2179548;81;21025;-57
2022/08/17 13:32:58;;;;;;;23.73;9.95;;;;;;;32.56;52.25;98424.67;2179931;82;21001;-60
2022/08/17 13:36:00;;;;;;;28.77;12.33;;;;;;;32.06;59.46;98431.66;2180077;81;21505;-58
2022/08/17 13:39:01;;;;;;;27.80;11.35;;;;;;;31.13;66.09;98433.81;2180053;82;21045;-58
2022/08/17 13:42:01;;;;;;;;;;;;;;;30.90;66.92;98436.81;2183149;82;20971;-60
2022/08/17 13:45:02;;;;;;;28.57;16.50;;;;;;;31.25;67.51;98430.57;2182236;82;20126;-58
2022/08/17 13:48:02;;;;;;;24.70;11.00;;;;;;;31.90;65.10;98438.14;2182089;82;21458;-59
2022/08/17 13:51:03;;;;;;;21.17;9.93;;;;;;;32.31;66.22;98431.30;2181489;82;21702;-60
2022/08/17 13:54:04;;;;;;;22.80;9.03;;;;;;;32.59;63.85;98424.98;2182339;82;20982;-60
2022/08/17 13:57:04;;;;;;;22.07;9.38;;;;;;;32.43;64.12;98433.96;2182189;81;21064;-61
2022/08/17 14:00:06;;;;;;;22.48;8.83;;;;;;;32.67;64.85;98430.56;2182098;82;21521;-60
2022/08/17 14:03:07;;;;;;;25.50;9.13;;;;;;;32.99;62.34;98434.86;2182187;82;20979;-59
2022/08/17 14:06:07;;;;;;;25.20;9.15;;;;;;;32.93;63.38;98440.45;2181390;82;21023;-62
2022/08/17 14:09:08;;;;;;;28.40;10.93;;;;;;;32.86;62.66;98439.28;2181701;82;21003;-59
2022/08/17 14:12:09;;;;;;;26.48;10.60;;;;;;;32.62;63.17;98438.06;2182144;81;21589;-62
2022/08/17 14:15:10;;;;;;;;;;;;;;;32.29;66.01;98438.33;2185127;81;21015;-60
2022/08/17 14:18:10;;;;;;;24.17;10.00;;;;;;;32.26;64.20;98438.82;2189263;81;20369;-60
2022/08/17 14:21:10;;;;;;;23.00;9.13;;;;;;;31.81;63.34;98448.25;2189084;81;20983;-59